createdAt,value
2019-03-28T00:01:53.609Z,15.55
2019-03-28T00:04:22.163Z,15.50
2019-03-28T00:06:50.804Z,14.18
2019-03-28T00:09:19.646Z,15.43
2019-03-28T00:11:49.165Z,15.13
2019-03-28T00:14:17.888Z,15.32
2019-03-28T00:16:46.663Z,14.28
2019-03-28T00:19:15.213Z,14.43
2019-03-28T00:21:43.763Z,15.58
2019-03-28T00:24:16.865Z,14.90
2019-03-28T00:26:45.410Z,15.32
2019-03-28T00:29:13.961Z,15.25
2019-03-28T00:31:42.561Z,15.03
2019-03-28T00:34:11.101Z,14.47
2019-03-28T00:36:39.650Z,16.02
2019-03-28T00:39:08.243Z,15.25
2019-03-28T00:41:36.791Z,15.18
2019-03-28T00:44:05.414Z,16.12
2019-03-28T00:46:35.504Z,15.70
2019-03-28T00:49:04.414Z,16.20
2019-03-28T00:51:32.966Z,15.88
2019-03-28T00:54:01.669Z,14.90
2019-03-28T00:56:38.424Z,15.38
2019-03-28T00:59:00.477Z,14.78
2019-03-28T01:01:29.099Z,15.15
2019-03-28T01:03:57.801Z,16.45
2019-03-28T01:06:26.349Z,15.80
2019-03-28T01:08:54.925Z,17.02
2019-03-28T01:11:23.475Z,16.45
2019-03-28T01:13:52.029Z,16.35
2019-03-28T01:16:20.671Z,17.37
2019-03-28T01:18:49.230Z,19.10
2019-03-28T01:21:17.781Z,16.60
2019-03-28T01:23:46.355Z,18.45
2019-03-28T01:26:14.903Z,18.80
2019-03-28T01:28:43.453Z,18.40
2019-03-28T01:31:12.038Z,18.52
2019-03-28T01:33:40.596Z,18.25
2019-03-28T01:36:09.145Z,18.77
2019-03-28T01:38:37.723Z,19.50
2019-03-28T01:41:06.266Z,19.00
2019-03-28T01:43:34.837Z,18.92
2019-03-28T01:46:03.397Z,18.75
2019-03-28T01:48:31.945Z,19.27
2019-03-28T01:51:00.493Z,19.57
2019-03-28T01:53:29.091Z,19.48
2019-03-28T01:55:57.572Z,18.55
2019-03-28T01:58:26.185Z,18.80
2019-03-28T02:00:54.773Z,19.57
2019-03-28T02:03:23.325Z,20.20
2019-03-28T02:05:51.869Z,20.57
2019-03-28T02:08:20.474Z,19.37
2019-03-28T02:10:49.393Z,20.25
2019-03-28T02:13:18.711Z,20.88
2019-03-28T02:15:47.216Z,21.05
2019-03-28T02:18:15.832Z,21.02
2019-03-28T02:20:44.371Z,22.40
2019-03-28T02:23:13.147Z,22.05
2019-03-28T02:25:41.742Z,22.40
2019-03-28T02:28:10.299Z,21.10
2019-03-28T02:30:38.893Z,21.23
2019-03-28T02:33:07.445Z,23.07
2019-03-28T02:35:35.993Z,22.93
2019-03-28T02:38:04.638Z,22.58
2019-03-28T02:40:33.194Z,21.42
2019-03-28T02:43:01.745Z,23.18
2019-03-28T02:45:30.343Z,23.07
2019-03-28T02:47:58.856Z,23.70
2019-03-28T02:50:27.401Z,23.50
2019-03-28T02:52:55.975Z,23.12
2019-03-28T02:55:24.516Z,23.27
2019-03-28T02:57:53.053Z,23.62
2019-03-28T03:00:21.720Z,24.45
2019-03-28T03:02:50.196Z,24.63
2019-03-28T03:05:18.816Z,22.90
2019-03-28T03:07:47.387Z,23.52
2019-03-28T03:10:15.860Z,22.05
2019-03-28T03:12:44.412Z,24.10
2019-03-28T03:15:14.242Z,23.15
2019-03-28T03:17:42.842Z,23.85
2019-03-28T03:20:12.130Z,23.67
2019-03-28T03:22:40.703Z,23.57
2019-03-28T03:25:09.696Z,24.25
2019-03-28T03:27:38.236Z,22.82
2019-03-28T03:30:09.486Z,23.55
2019-03-28T03:32:38.177Z,23.15
2019-03-28T03:35:07.732Z,22.70
2019-03-28T03:37:36.293Z,23.85
2019-03-28T03:40:09.318Z,22.05
2019-03-28T03:42:37.955Z,23.15
2019-03-28T03:45:09.023Z,23.55
2019-03-28T03:47:38.192Z,23.05
2019-03-28T03:50:08.083Z,23.10
2019-03-28T03:52:36.657Z,23.75
2019-03-28T03:55:06.658Z,23.92
2019-03-28T03:57:35.196Z,24.92
2019-03-28T04:00:06.400Z,24.30
2019-03-28T04:02:34.950Z,24.23
2019-03-28T04:05:04.063Z,25.15
2019-03-28T04:07:32.632Z,24.90
2019-03-28T04:10:01.189Z,24.60
2019-03-28T04:12:29.737Z,24.60
2019-03-28T04:14:58.430Z,24.10
2019-03-28T04:17:28.421Z,25.23
2019-03-28T04:19:56.972Z,25.70
2019-03-28T04:22:25.566Z,24.98
2019-03-28T04:24:54.108Z,25.08
2019-03-28T04:27:22.653Z,25.68
2019-03-28T04:29:51.229Z,26.05
2019-03-28T04:32:20.586Z,23.98
2019-03-28T04:34:49.200Z,25.60
2019-03-28T04:37:17.708Z,25.95
2019-03-28T04:39:46.256Z,27.02
2019-03-28T04:42:14.728Z,26.23
2019-03-28T04:44:43.309Z,26.33
2019-03-28T04:47:11.863Z,26.52
2019-03-28T04:49:40.779Z,26.97
2019-03-28T04:52:09.361Z,26.52
2019-03-28T04:54:37.903Z,26.50
2019-03-28T04:57:06.457Z,26.52
2019-03-28T04:59:35.033Z,27.40
2019-03-28T05:02:05.058Z,27.42
2019-03-28T05:04:33.891Z,27.62
2019-03-28T05:07:02.404Z,27.00
2019-03-28T05:09:30.947Z,27.15
2019-03-28T05:11:59.623Z,27.93
2019-03-28T05:14:28.389Z,27.15
2019-03-28T05:16:56.948Z,27.48
2019-03-28T05:19:25.497Z,27.93
2019-03-28T05:21:56.405Z,27.13
2019-03-28T05:24:25.602Z,28.17
2019-03-28T05:26:54.203Z,27.75
2019-03-28T05:29:23.234Z,26.37
2019-03-28T05:31:51.796Z,27.73
2019-03-28T05:34:20.272Z,28.80
2019-03-28T05:36:52.005Z,27.27
2019-03-28T05:39:19.658Z,28.42
2019-03-28T05:41:48.596Z,26.55
2019-03-28T05:44:17.192Z,27.00
2019-03-28T05:46:45.741Z,30.27
2019-03-28T05:49:14.289Z,29.20
2019-03-28T05:51:42.875Z,28.45
2019-03-28T05:54:11.422Z,30.05
2019-03-28T05:56:39.964Z,28.75
2019-03-28T05:59:11.214Z,28.35
2019-03-28T06:01:38.736Z,30.17
2019-03-28T06:04:07.313Z,28.52
2019-03-28T06:06:36.672Z,30.35
2019-03-28T06:09:07.149Z,29.57
2019-03-28T06:11:35.870Z,28.70
2019-03-28T06:14:04.444Z,28.40
2019-03-28T06:16:33.012Z,28.98
2019-03-28T06:19:01.558Z,29.02
2019-03-28T06:21:30.082Z,30.17
2019-03-28T06:23:58.637Z,30.27
2019-03-28T06:26:30.408Z,30.57
2019-03-28T06:28:58.947Z,31.85
2019-03-28T06:31:27.485Z,32.25
2019-03-28T06:33:56.035Z,30.52
2019-03-28T06:36:26.750Z,31.68
2019-03-28T06:38:55.352Z,31.80
2019-03-28T06:41:23.892Z,31.02
2019-03-28T06:43:52.476Z,31.35
2019-03-28T06:46:21.028Z,33.48
2019-03-28T06:48:49.577Z,32.20
2019-03-28T06:51:18.152Z,37.13
2019-03-28T06:53:46.820Z,38.55
2019-03-28T06:56:15.296Z,35.95
2019-03-28T06:58:43.870Z,35.38
2019-03-28T07:01:12.336Z,32.58
2019-03-28T07:03:40.804Z,32.88
2019-03-28T07:06:09.379Z,35.63
2019-03-28T07:08:37.932Z,35.68
2019-03-28T07:11:06.919Z,34.05
2019-03-28T07:13:36.381Z,35.03
2019-03-28T07:16:04.962Z,33.50
2019-03-28T07:18:33.535Z,36.65
2019-03-28T07:21:02.964Z,35.48
2019-03-28T07:23:31.441Z,34.38
2019-03-28T07:25:59.984Z,34.08
2019-03-28T07:28:28.561Z,35.65
2019-03-28T07:30:57.120Z,34.73
2019-03-28T07:33:25.737Z,35.05
2019-03-28T07:35:54.603Z,35.00
2019-03-28T07:38:23.197Z,36.30
2019-03-28T07:40:51.678Z,36.08
2019-03-28T07:43:20.286Z,36.70
2019-03-28T07:45:48.816Z,35.48
2019-03-28T07:48:17.366Z,36.98
2019-03-28T07:50:45.948Z,36.83
2019-03-28T07:53:14.496Z,36.65
2019-03-28T07:55:43.825Z,34.78
2019-03-28T07:58:12.352Z,39.75
2019-03-28T08:00:40.880Z,35.80
2019-03-28T08:03:09.424Z,37.70
2019-03-28T08:05:38.013Z,36.48
2019-03-28T08:08:06.661Z,36.90
2019-03-28T08:10:35.212Z,37.53
2019-03-28T08:13:04.407Z,37.45
2019-03-28T08:15:32.966Z,34.90
2019-03-28T08:18:01.508Z,35.83
2019-03-28T08:20:30.101Z,35.75
2019-03-28T08:22:58.731Z,35.63
2019-03-28T08:25:27.344Z,36.15
2019-03-28T08:27:57.621Z,34.08
2019-03-28T08:30:37.205Z,33.13
2019-03-28T08:33:08.207Z,33.08
2019-03-28T08:35:37.394Z,35.33
2019-03-28T08:38:10.025Z,32.88
2019-03-28T08:40:43.128Z,35.25
2019-03-28T08:43:12.604Z,31.87
2019-03-28T08:45:41.151Z,30.27
2019-03-28T08:48:09.692Z,29.52
2019-03-28T08:50:38.199Z,29.67
2019-03-28T08:53:06.922Z,29.07
2019-03-28T08:55:35.487Z,28.65
2019-03-28T08:58:04.233Z,28.12
2019-03-28T09:00:44.521Z,25.27
2019-03-28T09:03:03.247Z,25.15
2019-03-28T09:05:31.843Z,22.98
2019-03-28T09:08:00.392Z,24.18
2019-03-28T09:10:28.891Z,23.77
2019-03-28T09:12:57.361Z,23.32
2019-03-28T09:15:25.909Z,21.68
2019-03-28T09:17:55.427Z,21.02
2019-03-28T09:20:24.033Z,21.07
2019-03-28T09:22:52.590Z,19.85
2019-03-28T09:25:21.173Z,18.27
2019-03-28T09:27:51.666Z,17.07
2019-03-28T09:30:23.001Z,18.50
2019-03-28T09:32:51.647Z,18.17
2019-03-28T09:35:29.034Z,17.92
2019-03-28T09:37:58.211Z,17.77
2019-03-28T09:40:26.826Z,15.95
2019-03-28T09:42:55.407Z,16.15
2019-03-28T09:45:23.980Z,16.85
2019-03-28T09:47:52.612Z,17.20
2019-03-28T09:50:21.092Z,16.05
2019-03-28T09:52:49.679Z,17.48
2019-03-28T09:55:19.034Z,16.27
2019-03-28T09:57:47.648Z,15.78
2019-03-28T10:00:16.973Z,15.85
2019-03-28T10:02:45.519Z,15.70
2019-03-28T10:05:14.235Z,16.82
2019-03-28T10:07:42.965Z,17.27
2019-03-28T10:10:12.310Z,16.82
2019-03-28T10:12:43.881Z,17.27
2019-03-28T10:15:11.529Z,17.42
2019-03-28T10:17:42.439Z,16.52
2019-03-28T10:20:11.296Z,18.87
2019-03-28T10:22:40.155Z,17.40
2019-03-28T10:25:12.428Z,16.02
2019-03-28T10:27:39.528Z,16.17
2019-03-28T10:30:08.934Z,14.05
2019-03-28T10:32:37.482Z,15.93
2019-03-28T10:35:07.506Z,16.25
2019-03-28T10:37:36.215Z,13.40
2019-03-28T10:40:07.893Z,16.35
2019-03-28T10:42:36.435Z,12.78
2019-03-28T10:45:06.763Z,12.35
2019-03-28T10:47:35.327Z,12.03
2019-03-28T10:50:05.719Z,11.35
2019-03-28T10:52:34.331Z,10.58
2019-03-28T10:55:02.872Z,9.98
2019-03-28T10:57:32.169Z,10.75
2019-03-28T11:00:01.158Z,10.25
2019-03-28T11:02:29.712Z,10.23
2019-03-28T11:04:58.248Z,9.50
2019-03-28T11:07:26.845Z,9.35
2019-03-28T11:09:55.427Z,9.00
2019-03-28T11:12:23.972Z,8.80
2019-03-28T11:14:52.549Z,8.10
2019-03-28T11:17:21.796Z,9.18
2019-03-28T11:19:50.564Z,8.90
2019-03-28T11:22:19.139Z,9.93
2019-03-28T11:24:47.683Z,8.93
2019-03-28T11:27:16.177Z,8.95
2019-03-28T11:29:44.823Z,8.43
2019-03-28T11:32:13.311Z,8.98
2019-03-28T11:34:42.051Z,7.40
2019-03-28T11:37:24.981Z,8.78
2019-03-28T11:39:41.264Z,8.88
2019-03-28T11:42:09.819Z,8.90
2019-03-28T11:44:38.443Z,7.78
2019-03-28T11:47:07.047Z,8.15
2019-03-28T11:49:35.530Z,8.58
2019-03-28T11:52:04.185Z,8.25
2019-03-28T11:54:32.743Z,8.93
2019-03-28T11:57:01.315Z,7.25
2019-03-28T11:59:31.377Z,8.05
2019-03-28T12:02:18.374Z,6.95
2019-03-28T12:04:30.293Z,7.65
2019-03-28T12:06:58.880Z,7.62
2019-03-28T12:09:27.428Z,7.50
2019-03-28T12:11:55.974Z,6.62
2019-03-28T12:14:24.515Z,7.20
2019-03-28T12:16:53.069Z,6.08
2019-03-28T12:19:21.608Z,7.17
2019-03-28T12:21:50.352Z,7.00
2019-03-28T12:24:18.822Z,6.75
2019-03-28T12:26:47.292Z,6.83
2019-03-28T12:29:15.872Z,6.53
2019-03-28T12:31:44.416Z,7.10
2019-03-28T12:34:12.972Z,6.85
2019-03-28T12:36:41.628Z,6.70
2019-03-28T12:39:10.187Z,6.45
2019-03-28T12:41:38.721Z,6.47
2019-03-28T12:44:07.732Z,5.87
2019-03-28T12:46:36.284Z,6.22
2019-03-28T12:49:04.892Z,5.33
2019-03-28T12:51:34.228Z,5.25
2019-03-28T12:54:02.846Z,5.50
2019-03-28T12:56:31.418Z,4.80
2019-03-28T12:58:59.931Z,4.35
2019-03-28T13:01:28.455Z,4.70
2019-03-28T13:03:57.764Z,4.15
2019-03-28T13:06:26.341Z,3.52
2019-03-28T13:08:55.767Z,3.35
2019-03-28T13:11:24.303Z,4.33
2019-03-28T13:13:52.874Z,4.92
2019-03-28T13:16:21.425Z,4.60
2019-03-28T13:18:50.013Z,5.42
2019-03-28T13:21:18.582Z,4.85
2019-03-28T13:23:47.184Z,4.62
2019-03-28T13:26:15.734Z,5.17
2019-03-28T13:28:44.452Z,4.97
2019-03-28T13:31:12.997Z,5.42
2019-03-28T13:33:41.541Z,4.87
2019-03-28T13:36:10.140Z,4.10
2019-03-28T13:38:38.679Z,3.90
2019-03-28T13:41:07.365Z,3.80
2019-03-28T13:43:35.937Z,3.72
2019-03-28T13:46:04.702Z,5.00
2019-03-28T13:48:33.233Z,4.45
2019-03-28T13:51:01.799Z,4.40
2019-03-28T13:53:39.251Z,3.70
2019-03-28T13:56:00.464Z,4.22
2019-03-28T13:58:29.044Z,4.30
2019-03-28T14:00:57.667Z,4.85
2019-03-28T14:03:26.211Z,5.15
2019-03-28T14:05:54.787Z,4.12
2019-03-28T14:08:23.248Z,4.67
2019-03-28T14:10:51.856Z,4.40
2019-03-28T14:13:21.492Z,4.05
2019-03-28T14:15:52.294Z,3.95
2019-03-28T14:18:22.469Z,15.18
2019-03-28T14:20:51.036Z,6.20
2019-03-28T14:23:19.610Z,8.60
2019-03-28T14:25:48.139Z,3.92
2019-03-28T14:28:16.713Z,4.22
2019-03-28T14:30:45.245Z,3.83
2019-03-28T14:33:15.867Z,4.72
2019-03-28T14:35:43.945Z,4.15
2019-03-28T14:38:12.564Z,4.47
2019-03-28T14:40:41.118Z,4.60
2019-03-28T14:43:10.848Z,4.55
2019-03-28T14:45:39.696Z,3.98
2019-03-28T14:48:08.239Z,4.55
2019-03-28T14:50:39.408Z,3.58
2019-03-28T14:53:08.418Z,3.75
2019-03-28T14:55:37.356Z,3.90
2019-03-28T14:58:06.883Z,4.28
2019-03-28T15:00:46.690Z,4.60
2019-03-28T15:03:25.101Z,4.40
2019-03-28T15:05:44.879Z,4.37
2019-03-28T15:08:13.415Z,5.00
2019-03-28T15:10:42.000Z,4.55
2019-03-28T15:13:10.551Z,5.37
2019-03-28T15:15:39.227Z,4.55
2019-03-28T15:18:07.746Z,4.97
2019-03-28T15:20:36.438Z,5.20
2019-03-28T15:23:05.052Z,6.15
2019-03-28T15:25:33.623Z,5.55
2019-03-28T15:28:02.174Z,5.62
2019-03-28T15:30:30.717Z,6.55
2019-03-28T15:32:59.303Z,6.08
2019-03-28T15:35:27.854Z,5.60
2019-03-28T15:37:56.394Z,5.25
2019-03-28T15:40:24.899Z,5.28
2019-03-28T15:42:53.486Z,5.50
2019-03-28T15:45:21.991Z,5.35
2019-03-28T15:47:52.272Z,6.05
2019-03-28T15:50:21.023Z,5.12
2019-03-28T15:52:49.636Z,4.47
2019-03-28T15:55:18.160Z,4.22
2019-03-28T15:57:46.696Z,5.08
2019-03-28T16:00:15.989Z,5.10
2019-03-28T16:02:44.546Z,5.35
2019-03-28T16:05:13.021Z,5.85
2019-03-28T16:07:41.592Z,5.80
2019-03-28T16:10:14.504Z,5.40
2019-03-28T16:12:42.671Z,5.72
2019-03-28T16:15:11.713Z,6.40
2019-03-28T16:17:40.213Z,6.17
2019-03-28T16:20:09.222Z,5.37
2019-03-28T16:22:39.361Z,6.20
2019-03-28T16:25:08.488Z,5.78
2019-03-28T16:27:37.046Z,5.80
2019-03-28T16:30:08.500Z,5.70
2019-03-28T16:32:37.087Z,5.75
2019-03-28T16:35:09.035Z,6.33
2019-03-28T16:37:37.575Z,6.45
2019-03-28T16:40:08.192Z,6.83
2019-03-28T16:42:36.731Z,7.60
2019-03-28T16:45:07.708Z,7.15
2019-03-28T16:47:36.304Z,7.37
2019-03-28T16:50:06.303Z,8.38
2019-03-28T16:52:34.853Z,8.20
2019-03-28T16:55:03.728Z,8.50
2019-03-28T16:57:32.291Z,8.78
2019-03-28T17:00:00.850Z,10.10
2019-03-28T17:02:29.417Z,9.75
2019-03-28T17:04:57.899Z,10.08
2019-03-28T17:07:27.690Z,10.15
2019-03-28T17:09:56.719Z,10.63
2019-03-28T17:12:25.259Z,10.82
2019-03-28T17:14:53.799Z,10.98
2019-03-28T17:17:22.315Z,12.28
2019-03-28T17:19:50.858Z,10.85
2019-03-28T17:22:19.341Z,9.85
2019-03-28T17:24:48.295Z,11.78
2019-03-28T17:27:16.819Z,11.45
2019-03-28T17:29:45.311Z,10.40
2019-03-28T17:32:13.999Z,10.10
2019-03-28T17:34:45.729Z,9.70
2019-03-28T17:37:12.752Z,9.13
2019-03-28T17:39:41.354Z,9.30
2019-03-28T17:42:09.912Z,9.58
2019-03-28T17:44:38.458Z,8.48
2019-03-28T17:47:07.258Z,9.33
2019-03-28T17:49:35.896Z,9.50
2019-03-28T17:52:04.435Z,10.10
2019-03-28T17:54:32.966Z,10.70
2019-03-28T17:57:01.774Z,11.35
2019-03-28T17:59:30.250Z,12.03
2019-03-28T18:01:58.819Z,14.25
2019-03-28T18:04:27.363Z,13.03
2019-03-28T18:06:56.026Z,11.55
2019-03-28T18:09:24.595Z,11.80
2019-03-28T18:11:53.164Z,12.03
2019-03-28T18:14:21.693Z,11.55
2019-03-28T18:16:50.277Z,12.93
2019-03-28T18:19:18.957Z,14.80
2019-03-28T18:21:47.486Z,12.30
2019-03-28T18:24:16.010Z,14.25
2019-03-28T18:26:44.548Z,14.30
2019-03-28T18:29:13.095Z,14.83
2019-03-28T18:31:50.482Z,16.80
2019-03-28T18:34:12.470Z,16.75
2019-03-28T18:36:41.416Z,17.10
2019-03-28T18:39:09.906Z,17.80
2019-03-28T18:41:38.841Z,16.97
2019-03-28T18:44:07.732Z,17.42
2019-03-28T18:46:38.069Z,18.73
2019-03-28T18:49:06.549Z,17.27
2019-03-28T18:51:35.096Z,19.00
2019-03-28T18:54:04.109Z,17.75
2019-03-28T18:56:32.651Z,17.45
2019-03-28T18:59:01.220Z,18.40
2019-03-28T19:01:29.823Z,15.93
2019-03-28T19:03:58.377Z,16.60
2019-03-28T19:06:27.230Z,16.23
2019-03-28T19:08:56.081Z,14.85
2019-03-28T19:11:24.571Z,15.85
2019-03-28T19:13:53.099Z,16.00
2019-03-28T19:16:21.974Z,25.32
2019-03-28T19:18:51.810Z,16.05
2019-03-28T19:21:20.398Z,17.23
2019-03-28T19:23:48.975Z,16.37
2019-03-28T19:26:17.543Z,17.42
2019-03-28T19:28:46.247Z,16.37
2019-03-28T19:31:14.774Z,18.50
2019-03-28T19:33:43.318Z,17.15
2019-03-28T19:36:14.116Z,16.82
2019-03-28T19:38:43.135Z,17.90
2019-03-28T19:41:11.716Z,17.10
2019-03-28T19:43:42.143Z,18.02
2019-03-28T19:46:10.797Z,16.85
2019-03-28T19:48:39.344Z,17.50
2019-03-28T19:51:08.923Z,16.93
2019-03-28T19:53:37.585Z,16.05
2019-03-28T19:56:06.153Z,16.00
2019-03-28T19:58:35.213Z,16.12
2019-03-28T20:01:09.869Z,17.62
2019-03-28T20:03:38.475Z,17.27
2019-03-28T20:06:21.579Z,17.87
2019-03-28T20:08:39.462Z,18.60
2019-03-28T20:11:08.095Z,18.35
2019-03-28T20:13:36.632Z,18.30
2019-03-28T20:16:05.151Z,19.00
2019-03-28T20:18:33.706Z,19.00
2019-03-28T20:21:02.279Z,19.35
2019-03-28T20:23:30.934Z,18.62
2019-03-28T20:25:59.474Z,19.75
2019-03-28T20:28:28.038Z,17.80
2019-03-28T20:30:56.639Z,27.98
2019-03-28T20:33:25.343Z,19.48
2019-03-28T20:36:06.260Z,19.10
2019-03-28T20:38:24.284Z,18.15
2019-03-28T20:40:53.900Z,19.17
2019-03-28T20:43:22.453Z,103.12
2019-03-28T20:45:51.024Z,66.82
2019-03-28T20:48:19.536Z,22.45
2019-03-28T20:50:48.051Z,21.87
2019-03-28T20:53:17.059Z,20.80
2019-03-28T20:55:45.579Z,20.57
2019-03-28T20:58:14.131Z,20.25
2019-03-28T21:00:47.463Z,22.95
2019-03-28T21:05:45.412Z,21.55
2019-03-28T21:08:14.529Z,21.60
2019-03-28T21:10:43.142Z,22.67
2019-03-28T21:13:11.617Z,21.02
2019-03-28T21:15:40.194Z,25.02
2019-03-28T21:18:08.733Z,22.42
2019-03-28T21:20:37.224Z,26.23
2019-03-28T21:23:05.820Z,26.27
2019-03-28T21:25:34.375Z,22.25
2019-03-28T21:28:02.882Z,22.10
2019-03-28T21:30:31.878Z,21.95
2019-03-28T21:33:00.408Z,21.60
2019-03-28T21:35:28.957Z,23.38
2019-03-28T21:37:57.558Z,23.27
2019-03-28T21:40:26.104Z,22.45
2019-03-28T21:42:54.635Z,21.70
2019-03-28T21:45:23.204Z,24.52
2019-03-28T21:47:51.667Z,26.50
2019-03-28T21:50:20.187Z,23.65
2019-03-28T21:52:48.763Z,23.40
2019-03-28T21:55:17.320Z,28.27
2019-03-28T21:57:45.786Z,25.05
2019-03-28T22:00:15.502Z,24.45
2019-03-28T22:02:43.976Z,24.92
2019-03-28T22:05:12.905Z,26.62
2019-03-28T22:07:41.497Z,26.95
2019-03-28T22:10:10.372Z,25.08
2019-03-28T22:12:38.939Z,27.93
2019-03-28T22:15:09.149Z,27.95
2019-03-28T22:17:37.704Z,26.68
2019-03-28T22:20:07.087Z,28.30
2019-03-28T22:22:36.387Z,30.37
2019-03-28T22:25:06.603Z,30.10
2019-03-28T22:27:35.144Z,30.43
2019-03-28T22:30:04.301Z,33.48
2019-03-28T22:32:32.849Z,31.65
2019-03-28T22:35:01.399Z,34.05
2019-03-28T22:37:29.980Z,35.60
2019-03-28T22:39:58.522Z,33.25
2019-03-28T22:42:26.997Z,34.50
2019-03-28T22:44:55.580Z,36.63
2019-03-28T22:47:24.044Z,39.75
2019-03-28T22:49:52.514Z,46.08
2019-03-28T22:52:21.026Z,40.75
2019-03-28T22:54:49.573Z,47.35
2019-03-28T22:57:18.120Z,67.70
2019-03-28T22:59:46.636Z,47.73
2019-03-28T23:02:15.190Z,45.73
2019-03-28T23:04:43.736Z,44.30
2019-03-28T23:07:12.321Z,44.45
2019-03-28T23:09:40.890Z,50.78
2019-03-28T23:12:09.428Z,53.90
2019-03-28T23:14:37.947Z,51.95
2019-03-28T23:17:06.507Z,51.42
2019-03-28T23:19:35.048Z,41.45
2019-03-28T23:22:03.689Z,44.53
2019-03-28T23:24:32.218Z,41.83
2019-03-28T23:27:00.988Z,41.58
2019-03-28T23:29:29.911Z,40.45
2019-03-28T23:31:58.460Z,40.17
2019-03-28T23:34:27.012Z,38.73
2019-03-28T23:36:55.594Z,37.70
2019-03-28T23:39:24.136Z,38.50
2019-03-28T23:41:52.635Z,34.43
2019-03-28T23:44:21.189Z,33.23
2019-03-28T23:46:49.732Z,34.73
2019-03-28T23:49:18.380Z,31.02
2019-03-28T23:51:46.993Z,32.28
2019-03-28T23:54:15.492Z,30.12
2019-03-28T23:56:43.961Z,29.80
2019-03-28T23:59:13.744Z,26.70
